Marales — EA9501 — position and weather

sailwx.info

Track history (hours):
 
Tides and Currents Weather Stations Pressure Air Temp Water Temp Dewpoint Dewpoint Depression Visibility Wind Speed Wind Dir Waves Ship Positions

Marales

Last reported at 2017-Nov-15 23:32 UTC. Time now 2017-Nov-25 05:50 UTC.
Position N 28°13' W 015°44'.
Warning: this ship's position is 9 days out of date.

Length 14 m.

Type: Sailing vessel. MMSI: 225912750.

Date/timePositionNaut miles runAvg speedWind from/ knotsBaromVisibWave heightAir tempDewpointWater temp
2017-Nov-15 23:32N 28°13' W 015°44'1 5.0
2017-Nov-15 23:25N 28°14' W 015°43'2 3.7
2017-Nov-15 22:55N 28°15' W 015°42'2 4.4
2017-Nov-15 22:25N 28°16' W 015°40'2 3.7
2017-Nov-15 22:00N 28°17' W 015°39'2 3.6
2017-Nov-15 21:30N 28°18' W 015°37'2 3.4
2017-Nov-15 21:00N 28°18' W 015°35'2 3.5
2017-Nov-15 20:30N 28°19' W 015°33'2 3.5
2017-Nov-15 20:00N 28°20' W 015°31'2 3.5
2017-Nov-15 19:30N 28°20' W 015°29'2 3.6
2017-Nov-15 19:00N 28°21' W 015°27'2 3.6
2017-Nov-15 18:30N 28°21' W 015°25'2 3.2
2017-Nov-15 18:00N 28°22' W 015°24'2 4.0
2017-Nov-15 17:30N 28°23' W 015°22'2 4.6
2017-Nov-15 17:00N 28°24' W 015°19'2 4.8
2017-Nov-15 16:30N 28°25' W 015°17'2 4.9
2017-Nov-15 16:00N 28°26' W 015°14'3 5.0
2017-Nov-15 15:29N 28°27' W 015°12'3 5.3
2017-Nov-15 14:59N 28°28' W 015°09'3 5.1
2017-Nov-15 14:29N 28°29' W 015°06'78 5.8
2017-Nov-15 01:01N 28°49' W 013°40'2 5.8
2017-Nov-15 00:39N 28°49' W 013°37'1 6.2
2017-Nov-15 00:25N 28°49' W 013°36'3 6.8
2017-Nov-14 23:59N 28°49' W 013°32'2 5.1
2017-Nov-14 23:30N 28°52' W 013°31'4 6.3
2017-Nov-14 22:54N 28°56' W 013°32'2 5.5
2017-Nov-14 22:30N 28°58' W 013°32'0 0.1
2017-Nov-14 19:34N 28°58' W 013°32'0 0.0
2017-Nov-14 19:28N 28°58' W 013°32'0 0.0
2017-Nov-14 18:52N 28°58' W 013°32'0 0.0
2017-Nov-14 18:22N 28°58' W 013°32'0 0.0
2017-Nov-14 17:40N 28°58' W 013°32'0 0.0
2017-Nov-14 17:25N 28°58' W 013°32'0 0.0
2017-Nov-14 16:52N 28°58' W 013°32'0 0.0
2017-Nov-14 16:28N 28°58' W 013°32'0 0.0
2017-Nov-14 15:58N 28°58' W 013°32'0 0.0
2017-Nov-14 15:22N 28°58' W 013°32'0 0.0
2017-Nov-14 14:52N 28°58' W 013°32'0 0.0
2017-Nov-14 14:16N 28°58' W 013°32'0 0.0
2017-Nov-14 13:58N 28°58' W 013°32'0 0.0
2017-Nov-14 13:28N 28°58' W 013°32'0 0.0
2017-Nov-14 12:46N 28°58' W 013°32'0 0.0
2017-Nov-14 12:28N 28°58' W 013°32'0 0.0
2017-Nov-14 11:58N 28°58' W 013°32'0 0.0
2017-Nov-14 11:22N 28°58' W 013°32'0 0.0
2017-Nov-14 10:52N 28°58' W 013°32'0 0.0
2017-Nov-14 10:28N 28°58' W 013°32'0 0.0
2017-Nov-14 09:46N 28°58' W 013°32'0 0.0
2017-Nov-14 09:28N 28°58' W 013°32'0 0.0
2017-Nov-14 08:58N 28°58' W 013°32'0 0.0
2017-Nov-14 08:22N 28°58' W 013°32'0 0.0
2017-Nov-14 07:58N 28°58' W 013°32'0 0.0
2017-Nov-14 07:22N 28°58' W 013°32'0 0.0
2017-Nov-14 06:58N 28°58' W 013°32'0 0.0
2017-Nov-14 06:22N 28°58' W 013°32'0 0.0
2017-Nov-14 05:58N 28°58' W 013°32'0 0.0
2017-Nov-14 05:10N 28°58' W 013°32'0 0.0
2017-Nov-14 04:58N 28°58' W 013°32'0 0.0
2017-Nov-14 04:28N 28°58' W 013°32'0 0.0
2017-Nov-14 03:34N 28°58' W 013°32'0 0.0
2017-Nov-14 03:16N 28°58' W 013°32'0 0.0
2017-Nov-14 02:58N 28°58' W 013°32'0 0.0
2017-Nov-14 02:28N 28°58' W 013°32'0 0.0
2017-Nov-14 01:58N 28°58' W 013°32'0 0.0
2017-Nov-14 01:28N 28°58' W 013°32'0 0.0
2017-Nov-14 00:58N 28°58' W 013°32'0 0.0
2017-Nov-14 00:16N 28°58' W 013°32'0 0.0
2017-Nov-13 23:58N 28°58' W 013°32'0 0.0
2017-Nov-13 23:28N 28°58' W 013°32'0 0.0
2017-Nov-13 22:58N 28°58' W 013°32'0 0.0
2017-Nov-13 22:16N 28°58' W 013°32'0 0.0
2017-Nov-13 21:58N 28°58' W 013°32'0 0.0
2017-Nov-13 01:58N 28°58' W 013°32'0 0.0
2017-Nov-13 01:28N 28°58' W 013°32'0 0.0
2017-Nov-13 00:52N 28°58' W 013°32'0 0.0
2017-Nov-13 00:22N 28°58' W 013°32'0 0.0
2017-Nov-12 23:58N 28°58' W 013°32'0 0.0
2017-Nov-12 23:28N 28°58' W 013°32'0 0.0
2017-Nov-12 16:46N 28°58' W 013°32'0 0.0
2017-Nov-12 16:28N 28°58' W 013°32'0 0.0
2017-Nov-12 15:52N 28°58' W 013°32'0 0.0
2017-Nov-12 15:28N 28°58' W 013°32'0 0.0
2017-Nov-12 14:58N 28°58' W 013°32'0 0.0
2017-Nov-12 14:28N 28°58' W 013°32'0 0.0
2017-Nov-12 13:16N 28°58' W 013°32'0 0.0
2017-Nov-12 10:28N 28°58' W 013°32'0 0.0
2017-Nov-12 07:58N 28°58' W 013°32'0 0.0
2017-Nov-12 07:19N 28°58' W 013°32'0 0.0
2017-Nov-12 06:58N 28°58' W 013°32'0 0.0
2017-Nov-12 06:10N 28°58' W 013°32'0 0.0
2017-Nov-12 05:52N 28°58' W 013°32'0 0.0
2017-Nov-12 05:28N 28°58' W 013°32'0 0.0
2017-Nov-12 04:10N 28°58' W 013°32'0 0.0
2017-Nov-12 03:52N 28°58' W 013°32'0 0.0
2017-Nov-12 03:28N 28°58' W 013°32'0 0.0
2017-Nov-12 02:58N 28°58' W 013°32'0 0.0
2017-Nov-12 02:28N 28°58' W 013°32'0 0.0
2017-Nov-12 01:52N 28°58' W 013°32'0 0.0
2017-Nov-12 01:28N 28°58' W 013°32'0 0.0
2017-Nov-12 00:46N 28°58' W 013°32'0 0.0
2017-Nov-12 00:28N 28°58' W 013°32'0 0.0
2017-Nov-11 23:40N 28°58' W 013°32'0 0.0
2017-Nov-11 23:22N 28°58' W 013°32'0 0.0
2017-Nov-11 22:52N 28°58' W 013°32'0 0.0
2017-Nov-11 22:19N 28°58' W 013°32'0 0.0
2017-Nov-11 21:52N 28°58' W 013°32'0 0.0
2017-Nov-11 21:28N 28°58' W 013°32'0 0.0
2017-Nov-11 20:52N 28°58' W 013°32'0 0.0
2017-Nov-11 05:16N 28°58' W 013°32'0 0.0
2017-Nov-11 04:52N 28°58' W 013°32'0 0.0
2017-Nov-11 04:10N 28°58' W 013°32'0 0.0
2017-Nov-11 03:58N 28°58' W 013°32'0 0.0
2017-Nov-11 03:16N 28°58' W 013°32'0 0.0
2017-Nov-11 02:52N 28°58' W 013°32'0 0.0
2017-Nov-11 02:22N 28°58' W 013°32'0 0.0
2017-Nov-11 01:58N 28°58' W 013°32'0 0.0
2017-Nov-11 01:22N 28°58' W 013°32'0 0.0
2017-Nov-11 00:40N 28°58' W 013°32'0 0.0
2017-Nov-10 17:28N 28°58' W 013°32'0 0.0
2017-Nov-10 16:58N 28°58' W 013°32'0 0.0
2017-Nov-10 16:25N 28°58' W 013°32'0 0.0
2017-Nov-10 15:52N 28°58' W 013°32'0 0.0
2017-Nov-10 15:28N 28°58' W 013°32'0 0.0
2017-Nov-10 14:52N 28°58' W 013°32'0 0.0
2017-Nov-10 14:28N 28°58' W 013°32'0 0.0
2017-Nov-10 13:52N 28°58' W 013°32'0 0.0
2017-Nov-10 13:16N 28°58' W 013°32'0 0.0
2017-Nov-10 12:58N 28°58' W 013°32'0 0.0
2017-Nov-10 12:22N 28°58' W 013°32'0 0.0
2017-Nov-10 11:58N 28°58' W 013°32'0 0.0
2017-Nov-10 11:28N 28°58' W 013°32'0 0.0
2017-Nov-09 14:16N 28°58' W 013°32'0 0.0
2017-Nov-09 13:46N 28°58' W 013°32'0 0.0
2017-Nov-09 13:28N 28°58' W 013°32'0 0.0
2017-Nov-09 12:58N 28°58' W 013°32'0 0.0
2017-Nov-09 12:22N 28°58' W 013°32'0 0.0
2017-Nov-09 11:58N 28°58' W 013°32'0 0.0
2017-Nov-09 11:28N 28°58' W 013°32'0 0.0
2017-Nov-09 10:52N 28°58' W 013°32'0 0.0
2017-Nov-09 10:28N 28°58' W 013°32'0 0.0
2017-Nov-09 09:58N 28°58' W 013°32'0 0.0
2017-Nov-09 09:28N 28°58' W 013°32'0 0.0
2017-Nov-09 08:58N 28°58' W 013°32'0 0.0
2017-Nov-09 08:28N 28°58' W 013°32'0 0.0
2017-Nov-09 07:55N 28°58' W 013°32'0 0.0
2017-Nov-09 07:28N 28°58' W 013°32'0 0.0
2017-Nov-09 06:58N 28°58' W 013°32'0 0.0
2017-Nov-09 06:22N 28°58' W 013°32'0 0.0
2017-Nov-09 05:58N 28°58' W 013°32'0 0.0
2017-Nov-09 05:28N 28°58' W 013°32'0 0.0
2017-Nov-09 04:58N 28°58' W 013°32'0 0.0
2017-Nov-09 04:28N 28°58' W 013°32'0 0.0
2017-Nov-09 03:46N 28°58' W 013°32'0 0.0
2017-Nov-09 02:58N 28°58' W 013°32'0 0.0
2017-Nov-08 20:28N 28°58' W 013°32'0 0.0
2017-Nov-08 19:58N 28°58' W 013°32'0 0.0
2017-Nov-08 19:22N 28°58' W 013°32'0 0.0
2017-Nov-08 18:10N 28°58' W 013°32'0 0.0
2017-Nov-08 17:58N 28°58' W 013°32'0 0.0
2017-Nov-08 17:28N 28°58' W 013°32'0 0.0
2017-Nov-08 16:52N 28°58' W 013°32'0 0.0
2017-Nov-08 16:28N 28°58' W 013°32'0 0.0
2017-Nov-08 15:52N 28°58' W 013°32'0 0.0
2017-Nov-08 15:28N 28°58' W 013°32'0 0.0
2017-Nov-08 14:58N 28°58' W 013°32'0 0.0
2017-Nov-08 14:28N 28°58' W 013°32'0 0.0
2017-Nov-08 13:40N 28°58' W 013°32'0 0.0
2017-Nov-08 13:28N 28°58' W 013°32'0 0.0
2017-Nov-08 12:58N 28°58' W 013°32'0 0.0
2017-Nov-08 12:28N 28°58' W 013°32'0 0.0
2017-Nov-08 11:58N 28°58' W 013°32'0 0.0
2017-Nov-08 11:28N 28°58' W 013°32'0 0.0
2017-Nov-08 10:58N 28°58' W 013°32'0 0.0
2017-Nov-08 10:28N 28°58' W 013°32'0 0.0
2017-Nov-07 12:04N 28°58' W 013°32'0 0.1
2017-Nov-07 11:58N 28°58' W 013°32'0 0.0
2017-Nov-07 11:22N 28°58' W 013°32'0 0.0
2017-Nov-07 10:52N 28°58' W 013°32'0 0.0
2017-Nov-07 10:28N 28°58' W 013°32'0 0.0
2017-Nov-07 09:58N 28°58' W 013°32'0 0.0
2017-Nov-07 09:22N 28°58' W 013°32'0 0.0
2017-Nov-07 08:58N 28°58' W 013°32'0 0.0
2017-Nov-07 08:28N 28°58' W 013°32'0 0.0
2017-Nov-07 07:04N 28°58' W 013°32'0 0.0
2017-Nov-07 06:58N 28°58' W 013°32'0 0.0
2017-Nov-07 04:16N 28°58' W 013°32'0 0.0
2017-Nov-07 03:34N 28°58' W 013°32'0 0.1
2017-Nov-07 03:28N 28°58' W 013°32'0 0.0
2017-Nov-07 02:58N 28°58' W 013°32'0 0.0
2017-Nov-07 01:46N 28°58' W 013°32'0 0.0
2017-Nov-07 01:28N 28°58' W 013°32'0 0.0
2017-Nov-07 00:58N 28°58' W 013°32'0 0.0
2017-Nov-06 21:28N 28°58' W 013°32'0 0.0
2017-Nov-06 20:52N 28°58' W 013°32'0 0.0
2017-Nov-06 20:04N 28°58' W 013°32'0 0.0
2017-Nov-06 02:16N 28°58' W 013°32'0 0.0
2017-Nov-06 01:58N 28°58' W 013°32'0 0.0
2017-Nov-06 01:16N 28°58' W 013°32'0 0.0
2017-Nov-06 00:52N 28°58' W 013°32'0 0.0
2017-Nov-06 00:28N 28°58' W 013°32'0 0.0
2017-Nov-05 23:52N 28°58' W 013°32'  
Track history (hours):
 
Tides and Currents Weather Stations Pressure Air Temp Water Temp Dewpoint Dewpoint Depression Visibility Wind Speed Wind Dir Waves Ship Positions

Marales

Last reported at 2017-Nov-15 23:32 UTC. Time now 2017-Nov-25 05:50 UTC.
Position N 28°13' W 015°44'.
Warning: this ship's position is 9 days out of date.

Length 14 m.

Type: Sailing vessel. MMSI: 225912750.

Date/timePositionNaut miles runAvg speedWind from/ knotsBaromVisibWave heightAir tempDewpointWater temp
2017-Nov-15 23:32N 28°13' W 015°44'1 5.0
2017-Nov-15 23:25N 28°14' W 015°43'2 3.7
2017-Nov-15 22:55N 28°15' W 015°42'2 4.4
2017-Nov-15 22:25N 28°16' W 015°40'2 3.7
2017-Nov-15 22:00N 28°17' W 015°39'2 3.6
2017-Nov-15 21:30N 28°18' W 015°37'2 3.4
2017-Nov-15 21:00N 28°18' W 015°35'2 3.5
2017-Nov-15 20:30N 28°19' W 015°33'2 3.5
2017-Nov-15 20:00N 28°20' W 015°31'2 3.5
2017-Nov-15 19:30N 28°20' W 015°29'2 3.6
2017-Nov-15 19:00N 28°21' W 015°27'2 3.6
2017-Nov-15 18:30N 28°21' W 015°25'2 3.2
2017-Nov-15 18:00N 28°22' W 015°24'2 4.0
2017-Nov-15 17:30N 28°23' W 015°22'2 4.6
2017-Nov-15 17:00N 28°24' W 015°19'2 4.8
2017-Nov-15 16:30N 28°25' W 015°17'2 4.9
2017-Nov-15 16:00N 28°26' W 015°14'3 5.0
2017-Nov-15 15:29N 28°27' W 015°12'3 5.3
2017-Nov-15 14:59N 28°28' W 015°09'3 5.1
2017-Nov-15 14:29N 28°29' W 015°06'78 5.8
2017-Nov-15 01:01N 28°49' W 013°40'2 5.8
2017-Nov-15 00:39N 28°49' W 013°37'1 6.2
2017-Nov-15 00:25N 28°49' W 013°36'3 6.8
2017-Nov-14 23:59N 28°49' W 013°32'2 5.1
2017-Nov-14 23:30N 28°52' W 013°31'4 6.3
2017-Nov-14 22:54N 28°56' W 013°32'2 5.5
2017-Nov-14 22:30N 28°58' W 013°32'0 0.1
2017-Nov-14 19:34N 28°58' W 013°32'0 0.0
2017-Nov-14 19:28N 28°58' W 013°32'0 0.0
2017-Nov-14 18:52N 28°58' W 013°32'0 0.0
2017-Nov-14 18:22N 28°58' W 013°32'0 0.0
2017-Nov-14 17:40N 28°58' W 013°32'0 0.0
2017-Nov-14 17:25N 28°58' W 013°32'0 0.0
2017-Nov-14 16:52N 28°58' W 013°32'0 0.0
2017-Nov-14 16:28N 28°58' W 013°32'0 0.0
2017-Nov-14 15:58N 28°58' W 013°32'0 0.0
2017-Nov-14 15:22N 28°58' W 013°32'0 0.0
2017-Nov-14 14:52N 28°58' W 013°32'0 0.0
2017-Nov-14 14:16N 28°58' W 013°32'0 0.0
2017-Nov-14 13:58N 28°58' W 013°32'0 0.0
2017-Nov-14 13:28N 28°58' W 013°32'0 0.0
2017-Nov-14 12:46N 28°58' W 013°32'0 0.0
2017-Nov-14 12:28N 28°58' W 013°32'0 0.0
2017-Nov-14 11:58N 28°58' W 013°32'0 0.0
2017-Nov-14 11:22N 28°58' W 013°32'0 0.0
2017-Nov-14 10:52N 28°58' W 013°32'0 0.0
2017-Nov-14 10:28N 28°58' W 013°32'0 0.0
2017-Nov-14 09:46N 28°58' W 013°32'0 0.0
2017-Nov-14 09:28N 28°58' W 013°32'0 0.0
2017-Nov-14 08:58N 28°58' W 013°32'0 0.0
2017-Nov-14 08:22N 28°58' W 013°32'0 0.0
2017-Nov-14 07:58N 28°58' W 013°32'0 0.0
2017-Nov-14 07:22N 28°58' W 013°32'0 0.0
2017-Nov-14 06:58N 28°58' W 013°32'0 0.0
2017-Nov-14 06:22N 28°58' W 013°32'0 0.0
2017-Nov-14 05:58N 28°58' W 013°32'0 0.0
2017-Nov-14 05:10N 28°58' W 013°32'0 0.0
2017-Nov-14 04:58N 28°58' W 013°32'0 0.0
2017-Nov-14 04:28N 28°58' W 013°32'0 0.0
2017-Nov-14 03:34N 28°58' W 013°32'0 0.0
2017-Nov-14 03:16N 28°58' W 013°32'0 0.0
2017-Nov-14 02:58N 28°58' W 013°32'0 0.0
2017-Nov-14 02:28N 28°58' W 013°32'0 0.0
2017-Nov-14 01:58N 28°58' W 013°32'0 0.0
2017-Nov-14 01:28N 28°58' W 013°32'0 0.0
2017-Nov-14 00:58N 28°58' W 013°32'0 0.0
2017-Nov-14 00:16N 28°58' W 013°32'0 0.0
2017-Nov-13 23:58N 28°58' W 013°32'0 0.0
2017-Nov-13 23:28N 28°58' W 013°32'0 0.0
2017-Nov-13 22:58N 28°58' W 013°32'0 0.0
2017-Nov-13 22:16N 28°58' W 013°32'0 0.0
2017-Nov-13 21:58N 28°58' W 013°32'0 0.0
2017-Nov-13 01:58N 28°58' W 013°32'0 0.0
2017-Nov-13 01:28N 28°58' W 013°32'0 0.0
2017-Nov-13 00:52N 28°58' W 013°32'0 0.0
2017-Nov-13 00:22N 28°58' W 013°32'0 0.0
2017-Nov-12 23:58N 28°58' W 013°32'0 0.0
2017-Nov-12 23:28N 28°58' W 013°32'0 0.0
2017-Nov-12 16:46N 28°58' W 013°32'0 0.0
2017-Nov-12 16:28N 28°58' W 013°32'0 0.0
2017-Nov-12 15:52N 28°58' W 013°32'0 0.0
2017-Nov-12 15:28N 28°58' W 013°32'0 0.0
2017-Nov-12 14:58N 28°58' W 013°32'0 0.0
2017-Nov-12 14:28N 28°58' W 013°32'0 0.0
2017-Nov-12 13:16N 28°58' W 013°32'0 0.0
2017-Nov-12 10:28N 28°58' W 013°32'0 0.0
2017-Nov-12 07:58N 28°58' W 013°32'0 0.0
2017-Nov-12 07:19N 28°58' W 013°32'0 0.0
2017-Nov-12 06:58N 28°58' W 013°32'0 0.0
2017-Nov-12 06:10N 28°58' W 013°32'0 0.0
2017-Nov-12 05:52N 28°58' W 013°32'0 0.0
2017-Nov-12 05:28N 28°58' W 013°32'0 0.0
2017-Nov-12 04:10N 28°58' W 013°32'0 0.0
2017-Nov-12 03:52N 28°58' W 013°32'0 0.0
2017-Nov-12 03:28N 28°58' W 013°32'0 0.0
2017-Nov-12 02:58N 28°58' W 013°32'0 0.0
2017-Nov-12 02:28N 28°58' W 013°32'0 0.0
2017-Nov-12 01:52N 28°58' W 013°32'0 0.0
2017-Nov-12 01:28N 28°58' W 013°32'0 0.0
2017-Nov-12 00:46N 28°58' W 013°32'0 0.0
2017-Nov-12 00:28N 28°58' W 013°32'0 0.0
2017-Nov-11 23:40N 28°58' W 013°32'0 0.0
2017-Nov-11 23:22N 28°58' W 013°32'0 0.0
2017-Nov-11 22:52N 28°58' W 013°32'0 0.0
2017-Nov-11 22:19N 28°58' W 013°32'0 0.0
2017-Nov-11 21:52N 28°58' W 013°32'0 0.0
2017-Nov-11 21:28N 28°58' W 013°32'0 0.0
2017-Nov-11 20:52N 28°58' W 013°32'0 0.0
2017-Nov-11 05:16N 28°58' W 013°32'0 0.0
2017-Nov-11 04:52N 28°58' W 013°32'0 0.0
2017-Nov-11 04:10N 28°58' W 013°32'0 0.0
2017-Nov-11 03:58N 28°58' W 013°32'0 0.0
2017-Nov-11 03:16N 28°58' W 013°32'0 0.0
2017-Nov-11 02:52N 28°58' W 013°32'0 0.0
2017-Nov-11 02:22N 28°58' W 013°32'0 0.0
2017-Nov-11 01:58N 28°58' W 013°32'0 0.0
2017-Nov-11 01:22N 28°58' W 013°32'0 0.0
2017-Nov-11 00:40N 28°58' W 013°32'0 0.0
2017-Nov-10 17:28N 28°58' W 013°32'0 0.0
2017-Nov-10 16:58N 28°58' W 013°32'0 0.0
2017-Nov-10 16:25N 28°58' W 013°32'0 0.0
2017-Nov-10 15:52N 28°58' W 013°32'0 0.0
2017-Nov-10 15:28N 28°58' W 013°32'0 0.0
2017-Nov-10 14:52N 28°58' W 013°32'0 0.0
2017-Nov-10 14:28N 28°58' W 013°32'0 0.0
2017-Nov-10 13:52N 28°58' W 013°32'0 0.0
2017-Nov-10 13:16N 28°58' W 013°32'0 0.0
2017-Nov-10 12:58N 28°58' W 013°32'0 0.0
2017-Nov-10 12:22N 28°58' W 013°32'0 0.0
2017-Nov-10 11:58N 28°58' W 013°32'0 0.0
2017-Nov-10 11:28N 28°58' W 013°32'0 0.0
2017-Nov-09 14:16N 28°58' W 013°32'0 0.0
2017-Nov-09 13:46N 28°58' W 013°32'0 0.0
2017-Nov-09 13:28N 28°58' W 013°32'0 0.0
2017-Nov-09 12:58N 28°58' W 013°32'0 0.0
2017-Nov-09 12:22N 28°58' W 013°32'0 0.0
2017-Nov-09 11:58N 28°58' W 013°32'0 0.0
2017-Nov-09 11:28N 28°58' W 013°32'0 0.0
2017-Nov-09 10:52N 28°58' W 013°32'0 0.0
2017-Nov-09 10:28N 28°58' W 013°32'0 0.0
2017-Nov-09 09:58N 28°58' W 013°32'0 0.0
2017-Nov-09 09:28N 28°58' W 013°32'0 0.0
2017-Nov-09 08:58N 28°58' W 013°32'0 0.0
2017-Nov-09 08:28N 28°58' W 013°32'0 0.0
2017-Nov-09 07:55N 28°58' W 013°32'0 0.0
2017-Nov-09 07:28N 28°58' W 013°32'0 0.0
2017-Nov-09 06:58N 28°58' W 013°32'0 0.0
2017-Nov-09 06:22N 28°58' W 013°32'0 0.0
2017-Nov-09 05:58N 28°58' W 013°32'0 0.0
2017-Nov-09 05:28N 28°58' W 013°32'0 0.0
2017-Nov-09 04:58N 28°58' W 013°32'0 0.0
2017-Nov-09 04:28N 28°58' W 013°32'0 0.0
2017-Nov-09 03:46N 28°58' W 013°32'0 0.0
2017-Nov-09 02:58N 28°58' W 013°32'0 0.0
2017-Nov-08 20:28N 28°58' W 013°32'0 0.0
2017-Nov-08 19:58N 28°58' W 013°32'0 0.0
2017-Nov-08 19:22N 28°58' W 013°32'0 0.0
2017-Nov-08 18:10N 28°58' W 013°32'0 0.0
2017-Nov-08 17:58N 28°58' W 013°32'0 0.0
2017-Nov-08 17:28N 28°58' W 013°32'0 0.0
2017-Nov-08 16:52N 28°58' W 013°32'0 0.0
2017-Nov-08 16:28N 28°58' W 013°32'0 0.0
2017-Nov-08 15:52N 28°58' W 013°32'0 0.0
2017-Nov-08 15:28N 28°58' W 013°32'0 0.0
2017-Nov-08 14:58N 28°58' W 013°32'0 0.0
2017-Nov-08 14:28N 28°58' W 013°32'0 0.0
2017-Nov-08 13:40N 28°58' W 013°32'0 0.0
2017-Nov-08 13:28N 28°58' W 013°32'0 0.0
2017-Nov-08 12:58N 28°58' W 013°32'0 0.0
2017-Nov-08 12:28N 28°58' W 013°32'0 0.0
2017-Nov-08 11:58N 28°58' W 013°32'0 0.0
2017-Nov-08 11:28N 28°58' W 013°32'0 0.0
2017-Nov-08 10:58N 28°58' W 013°32'0 0.0
2017-Nov-08 10:28N 28°58' W 013°32'0 0.0
2017-Nov-07 12:04N 28°58' W 013°32'0 0.1
2017-Nov-07 11:58N 28°58' W 013°32'0 0.0
2017-Nov-07 11:22N 28°58' W 013°32'0 0.0
2017-Nov-07 10:52N 28°58' W 013°32'0 0.0
2017-Nov-07 10:28N 28°58' W 013°32'0 0.0
2017-Nov-07 09:58N 28°58' W 013°32'0 0.0
2017-Nov-07 09:22N 28°58' W 013°32'0 0.0
2017-Nov-07 08:58N 28°58' W 013°32'0 0.0
2017-Nov-07 08:28N 28°58' W 013°32'0 0.0
2017-Nov-07 07:04N 28°58' W 013°32'0 0.0
2017-Nov-07 06:58N 28°58' W 013°32'0 0.0
2017-Nov-07 04:16N 28°58' W 013°32'0 0.0
2017-Nov-07 03:34N 28°58' W 013°32'0 0.1
2017-Nov-07 03:28N 28°58' W 013°32'0 0.0
2017-Nov-07 02:58N 28°58' W 013°32'0 0.0
2017-Nov-07 01:46N 28°58' W 013°32'0 0.0
2017-Nov-07 01:28N 28°58' W 013°32'0 0.0
2017-Nov-07 00:58N 28°58' W 013°32'0 0.0
2017-Nov-06 21:28N 28°58' W 013°32'0 0.0
2017-Nov-06 20:52N 28°58' W 013°32'0 0.0
2017-Nov-06 20:04N 28°58' W 013°32'0 0.0
2017-Nov-06 02:16N 28°58' W 013°32'0 0.0
2017-Nov-06 01:58N 28°58' W 013°32'0 0.0
2017-Nov-06 01:16N 28°58' W 013°32'0 0.0
2017-Nov-06 00:52N 28°58' W 013°32'0 0.0
2017-Nov-06 00:28N 28°58' W 013°32'0 0.0
2017-Nov-05 23:52N 28°58' W 013°32'  

Dump ship's entire track history